Time;durP1;ratioP1;P1;durP2;ratioP2;P2;SDS_P1;SDS_P2;PMS_P1;PMS_P2;Temp;Humidity;BMP_temperature;BMP_pressure;BME280_temperature;BME280_humidity;BME280_pressure;Samples;Min_cycle;Max_cycle;Signal;HPM_P1;HPM_P2
2022/02/12 00:00:57;;;;;;;8.20;3.40;;;;;;;0.63;82.99;102599.38;5036720;28;20202;-81
2022/02/12 00:03:24;;;;;;;8.73;2.80;;;;;;;0.62;83.15;102599.38;5036465;28;20704;-81
2022/02/12 00:05:50;;;;;;;10.70;2.63;;;;;;;0.59;83.13;102605.47;5036824;28;20694;-81
2022/02/12 00:08:17;;;;;;;15.70;2.67;;;;;;;0.57;82.93;102601.06;5035886;28;20210;-81
2022/02/12 00:10:43;;;;;;;11.07;2.67;;;;;;;0.55;83.11;102605.41;5034711;28;20228;-81
2022/02/12 00:13:11;;;;;;;6.47;2.10;;;;;;;0.52;83.00;102608.91;5034826;28;20335;-82
2022/02/12 00:15:39;;;;;;;9.23;2.53;;;;;;;0.51;83.33;102614.13;5035050;28;20206;-80
2022/02/12 00:18:06;;;;;;;9.20;1.63;;;;;;;0.48;83.27;102606.25;5035139;28;20572;-80
2022/02/12 00:20:32;;;;;;;10.77;1.97;;;;;;;0.47;83.33;102604.47;5035445;28;20436;-81
2022/02/12 00:22:59;;;;;;;8.00;2.13;;;;;;;0.46;83.58;102603.59;5034903;28;20233;-80
2022/02/12 00:25:25;;;;;;;8.63;2.40;;;;;;;0.45;83.20;102606.22;5034162;28;20206;-81
2022/02/12 00:27:52;;;;;;;8.27;2.07;;;;;;;0.44;83.63;102609.69;5035337;28;20211;-80
2022/02/12 00:30:19;;;;;;;11.43;2.80;;;;;;;0.43;83.75;102608.81;5035651;28;20226;-80
2022/02/12 00:32:47;;;;;;;9.50;2.57;;;;;;;0.42;83.45;102614.03;5035079;28;20222;-80
2022/02/12 00:35:13;;;;;;;6.70;2.20;;;;;;;0.42;83.63;102599.19;5048357;28;20201;-81
2022/02/12 00:37:40;;;;;;;5.67;1.97;;;;;;;0.41;83.48;102593.94;5033837;28;20659;-81
2022/02/12 00:40:07;;;;;;;7.43;2.17;;;;;;;0.40;83.90;102598.28;5034379;28;20213;-81
2022/02/12 00:42:34;;;;;;;5.60;1.80;;;;;;;0.38;83.80;102604.38;5033973;28;20234;-80
2022/02/12 00:45:02;;;;;;;9.93;2.70;;;;;;;0.37;83.72;102603.50;5034321;28;20213;-81
2022/02/12 00:47:29;;;;;;;6.33;2.10;;;;;;;0.36;83.62;102606.97;5037030;28;20214;-80
2022/02/12 00:49:57;;;;;;;9.93;2.30;;;;;;;0.36;83.81;102601.75;5036917;28;20272;-80
2022/02/12 00:52:23;;;;;;;6.17;2.13;;;;;;;0.36;83.71;102600.91;5033028;28;20321;-81
2022/02/12 00:54:50;;;;;;;9.37;2.40;;;;;;;0.34;83.87;102603.50;5026536;28;20213;-81
2022/02/12 00:57:16;;;;;;;7.60;2.37;;;;;;;0.30;83.42;102599.06;5037749;28;20589;-80
2022/02/12 00:59:43;;;;;;;7.83;1.73;;;;;;;0.24;83.25;102612.09;5037217;28;20748;-80
2022/02/12 01:02:09;;;;;;;11.93;2.00;;;;;;;0.18;83.22;102605.06;5037013;28;20237;-80
2022/02/12 01:04:36;;;;;;;6.67;1.60;;;;;;;0.10;83.32;102596.25;5037617;28;20198;-81
2022/02/12 01:07:04;;;;;;;9.70;1.70;;;;;;;0.06;82.88;102594.44;5037428;28;20209;-81
2022/02/12 01:09:31;;;;;;;7.57;2.07;;;;;;;0.02;83.16;102595.28;5037135;28;20202;-81
2022/02/12 01:11:57;;;;;;;5.77;1.73;;;;;;;-0.03;83.00;102602.22;5037304;28;20236;-81
2022/02/12 01:14:24;;;;;;;8.43;1.90;;;;;;;-0.07;83.17;102601.31;5037855;28;20724;-81
2022/02/12 01:16:51;;;;;;;10.80;2.20;;;;;;;-0.13;83.02;102601.22;5037521;28;20205;-82
2022/02/12 01:19:17;;;;;;;7.90;2.63;;;;;;;-0.16;83.19;102601.19;5037178;28;20210;-81
2022/02/12 01:21:44;;;;;;;8.97;2.47;;;;;;;-0.19;83.06;102595.06;5037208;28;20227;-81
2022/02/12 01:24:12;;;;;;;6.70;2.17;;;;;;;-0.24;83.15;102587.13;5037276;28;20206;-81
2022/02/12 01:26:38;;;;;;;9.17;2.60;;;;;;;-0.27;83.20;102592.34;5022039;28;20582;-83
2022/02/12 01:29:05;;;;;;;7.83;2.70;;;;;;;-0.31;83.41;102595.75;5037301;28;20206;-80
2022/02/12 01:31:32;;;;;;;6.60;3.10;;;;;;;-0.34;83.28;102593.09;5037547;28;20234;-81
2022/02/12 01:33:58;;;;;;;9.00;3.00;;;;;;;-0.39;83.57;102589.56;5037204;28;20206;-80
2022/02/12 01:36:25;;;;;;;10.83;2.90;;;;;;;-0.44;83.35;102591.25;5019916;28;20210;-81
2022/02/12 01:38:52;;;;;;;7.80;3.10;;;;;;;-0.49;83.35;102593.78;5027139;28;20206;-80
2022/02/12 01:41:19;;;;;;;7.63;2.90;;;;;;;-0.53;83.47;102588.50;5037323;28;20210;-80
2022/02/12 01:43:46;;;;;;;6.30;3.10;;;;;;;-0.58;83.75;102583.22;5037655;28;20210;-79
2022/02/12 01:46:13;;;;;;;9.30;3.07;;;;;;;-0.62;83.39;102585.78;5037342;28;20671;-79
2022/02/12 01:48:43;;;;;;;10.30;3.50;;;;;;;-0.66;83.51;102586.56;5030669;28;20721;-80
2022/02/12 01:51:10;;;;;;;9.20;3.37;;;;;;;-0.71;83.72;102578.66;5041777;22;20226;-69
2022/02/12 01:53:37;;;;;;;9.43;3.63;;;;;;;-0.78;83.83;102577.72;5070464;28;20290;-69
2022/02/12 01:56:04;;;;;;;9.90;3.67;;;;;;;-0.83;83.61;102584.59;5071521;28;20251;-68
2022/02/12 01:58:32;;;;;;;6.20;3.43;;;;;;;-0.88;83.69;102581.03;5067866;28;20312;-70
2022/02/12 02:00:59;;;;;;;9.63;2.97;;;;;;;-0.92;83.76;102579.25;5061081;28;20240;-72
2022/02/12 02:05:55;;;;;;;6.60;2.57;;;;;;;-0.99;83.89;102573.91;5052646;23;20222;-69
2022/02/12 02:08:23;;;;;;;10.07;3.80;;;;;;;-1.02;84.34;102572.13;5030743;28;20202;-70
2022/02/12 02:10:49;;;;;;;9.70;3.80;;;;;;;-1.04;84.30;102573.81;5029734;28;20602;-69
2022/02/12 02:13:24;;;;;;;10.07;4.20;;;;;;;-1.08;84.61;102567.69;5031375;28;20210;-70
2022/02/12 02:15:52;;;;;;;6.43;3.67;;;;;;;-1.11;84.20;102572.00;5015533;28;20314;-69
2022/02/12 02:18:19;;;;;;;7.53;3.27;;;;;;;-1.14;84.89;102569.34;5018728;28;20572;-70
2022/02/12 02:20:46;;;;;;;8.80;3.80;;;;;;;-1.19;84.79;102568.38;5027886;28;20206;-70
2022/02/12 02:23:14;;;;;;;7.87;3.50;;;;;;;-1.22;84.76;102570.94;5029004;28;20645;-69
2022/02/12 02:25:41;;;;;;;7.17;2.90;;;;;;;-1.25;84.92;102569.16;5031445;28;20222;-68
2022/02/12 02:28:07;;;;;;;13.00;4.53;;;;;;;-1.26;84.95;102566.53;5025415;28;20231;-70
2022/02/12 02:30:35;;;;;;;8.50;3.70;;;;;;;-1.27;85.29;102564.78;5028086;28;20276;-70
2022/02/12 02:33:01;;;;;;;10.10;3.50;;;;;;;-1.29;84.94;102553.41;5021773;28;20645;-68
2022/02/12 02:35:28;;;;;;;12.37;3.70;;;;;;;-1.32;84.96;102556.84;5029013;28;20258;-69
2022/02/12 02:37:54;;;;;;;6.37;2.67;;;;;;;-1.33;85.04;102552.47;5022542;28;20202;-72
2022/02/12 02:40:24;;;;;;;9.10;2.63;;;;;;;-1.33;85.34;102551.59;5030256;28;20277;-69
2022/02/12 02:42:52;;;;;;;8.43;2.50;;;;;;;-1.37;85.07;102550.66;5026670;28;20206;-68
2022/02/12 02:45:19;;;;;;;8.10;2.73;;;;;;;-1.40;84.85;102559.34;5020886;28;20305;-71
2022/02/12 02:47:46;;;;;;;8.00;3.37;;;;;;;-1.42;85.21;102555.81;5030376;28;20238;-68
2022/02/12 02:56:01;;;;;;;8.20;2.83;;;;;;;-1.47;85.69;102556.63;5030378;28;20821;-69
2022/02/12 02:58:28;;;;;;;7.27;2.60;;;;;;;-1.49;85.20;102553.09;5025512;28;20206;-70
2022/02/12 03:00:55;;;;;;;8.83;3.00;;;;;;;-1.51;85.68;102558.28;5022436;28;20728;-68
2022/02/12 03:03:22;;;;;;;6.20;2.80;;;;;;;-1.53;85.76;102548.66;5035398;28;20214;-69
2022/02/12 03:05:48;;;;;;;5.50;3.20;;;;;;;-1.55;85.90;102551.25;5029225;28;20674;-69
2022/02/12 03:08:15;;;;;;;11.40;3.53;;;;;;;-1.56;85.88;102554.72;5024715;28;20242;-70
2022/02/12 03:10:42;;;;;;;7.07;3.00;;;;;;;-1.58;85.92;102558.16;5025870;28;20226;-69
2022/02/12 03:13:10;;;;;;;7.13;2.77;;;;;;;-1.57;86.12;102559.91;5023592;28;20230;-69
2022/02/12 03:15:39;;;;;;;9.97;2.90;;;;;;;-1.58;85.94;102566.00;5021470;28;20234;-70
2022/02/12 03:18:06;;;;;;;7.10;2.93;;;;;;;-1.59;86.46;102561.63;5021981;28;20210;-71
2022/02/12 03:20:33;;;;;;;5.27;2.47;;;;;;;-1.61;85.81;102558.97;5023476;28;20683;-70
2022/02/12 03:23:00;;;;;;;12.97;3.30;;;;;;;-1.62;86.19;102564.19;5020808;28;20286;-70
2022/02/12 03:25:26;;;;;;;11.80;2.70;;;;;;;-1.64;86.21;102560.69;5022175;28;20300;-70
2022/02/12 03:27:53;;;;;;;9.93;2.70;;;;;;;-1.66;86.13;102562.38;5022351;28;20211;-69
2022/02/12 03:30:21;;;;;;;5.20;2.60;;;;;;;-1.70;86.19;102564.06;5028126;28;20299;-69
2022/02/12 03:32:48;;;;;;;5.27;2.53;;;;;;;-1.73;86.16;102557.91;5022562;28;20296;-69
2022/02/12 03:35:15;;;;;;;7.17;2.40;;;;;;;-1.76;86.22;102545.66;5021783;28;20265;-69
2022/02/12 03:37:41;;;;;;;9.00;3.33;;;;;;;-1.79;86.60;102543.88;5028246;28;20289;-69
2022/02/12 03:40:09;;;;;;;8.17;2.87;;;;;;;-1.81;86.54;102542.09;5024219;28;20623;-69
2022/02/12 03:42:36;;;;;;;6.90;2.33;;;;;;;-1.82;86.20;102550.78;5029545;28;20672;-71
2022/02/12 03:45:03;;;;;;;7.17;2.67;;;;;;;-1.85;86.12;102551.63;5027359;28;20683;-71
2022/02/12 03:47:31;;;;;;;5.90;2.57;;;;;;;-1.86;86.53;102547.25;5012550;28;20293;-71
2022/02/12 03:49:57;;;;;;;7.87;2.70;;;;;;;-1.88;86.64;102543.72;5029698;28;20321;-71
2022/02/12 03:52:24;;;;;;;6.70;2.87;;;;;;;-1.86;86.52;102541.13;5014844;28;20270;-71
2022/02/12 03:54:51;;;;;;;7.90;2.47;;;;;;;-1.88;86.81;102527.16;5023271;28;20365;-69
2022/02/12 03:57:17;;;;;;;5.23;2.57;;;;;;;-1.89;86.51;102541.97;5014114;28;20293;-73
2022/02/12 03:59:44;;;;;;;10.27;2.70;;;;;;;-1.92;86.74;102531.44;5017791;28;20424;-69
2022/02/12 04:02:10;;;;;;;7.37;2.33;;;;;;;-1.95;86.81;102535.72;5024828;28;20214;-71
2022/02/12 04:04:39;;;;;;;6.23;2.23;;;;;;;-1.98;86.78;102536.59;5016706;28;20712;-72
2022/02/12 04:07:05;;;;;;;6.87;2.50;;;;;;;-2.00;86.80;102527.84;5026255;28;20226;-71
2022/02/12 04:09:32;;;;;;;6.00;2.23;;;;;;;-2.01;86.66;102527.81;5025269;28;20280;-71
2022/02/12 04:11:59;;;;;;;8.63;2.33;;;;;;;-2.01;86.79;102527.81;5019728;28;20657;-72
2022/02/12 04:14:25;;;;;;;6.43;2.00;;;;;;;-2.03;86.65;102526.91;5028668;28;20313;-71
2022/02/12 04:16:52;;;;;;;9.37;2.40;;;;;;;-2.03;87.18;102521.69;5022025;28;20207;-71
2022/02/12 04:19:18;;;;;;;6.57;1.67;;;;;;;-2.02;87.16;102523.44;5014452;28;20294;-71
2022/02/12 04:21:46;;;;;;;6.80;1.60;;;;;;;-2.02;87.29;102520.81;5020262;28;20252;-72
2022/02/12 04:24:13;;;;;;;7.67;1.83;;;;;;;-1.98;87.19;102522.66;5029352;28;20293;-72
2022/02/12 04:26:40;;;;;;;6.57;1.47;;;;;;;-1.92;87.67;102514.91;5020630;28;20256;-71
2022/02/12 04:29:06;;;;;;;5.40;1.13;;;;;;;-1.82;87.81;102516.84;5022068;28;20202;-70
2022/02/12 04:31:33;;;;;;;4.97;1.90;;;;;;;-1.72;88.12;102510.91;5021913;28;20305;-71
2022/02/12 04:33:59;;;;;;;8.70;2.30;;;;;;;-1.63;88.34;102512.81;5020925;28;20309;-71
2022/02/12 04:36:26;;;;;;;5.37;1.73;;;;;;;-1.54;88.26;102513.81;5013931;28;20746;-70
2022/02/12 04:38:54;;;;;;;7.93;1.87;;;;;;;-1.44;88.60;102520.97;5026558;28;20569;-71
2022/02/12 04:41:21;;;;;;;9.77;1.83;;;;;;;-1.36;88.11;102513.22;5031065;28;20747;-70
2022/02/12 04:43:49;;;;;;;4.57;1.50;;;;;;;-1.29;88.48;102508.97;5024171;28;20218;-71
2022/02/12 04:46:15;;;;;;;5.43;1.73;;;;;;;-1.24;88.65;102512.50;5021500;28;20215;-71
2022/02/12 04:48:42;;;;;;;5.83;1.57;;;;;;;-1.21;88.46;102500.38;5020948;28;20285;-71
2022/02/12 04:51:08;;;;;;;8.17;1.63;;;;;;;-1.19;88.20;102501.28;5020025;28;20670;-71
2022/02/12 04:53:36;;;;;;;7.90;1.73;;;;;;;-1.16;88.19;102501.31;5016591;28;20207;-72
2022/02/12 04:56:04;;;;;;;4.90;1.70;;;;;;;-1.13;88.29;102503.13;5014669;28;20215;-70
2022/02/12 04:58:31;;;;;;;6.07;1.93;;;;;;;-1.12;88.14;102500.53;5013778;28;20211;-70
2022/02/12 05:00:58;;;;;;;5.50;1.50;;;;;;;-1.11;87.83;102493.56;5018711;28;20214;-71
2022/02/12 05:03:25;;;;;;;7.63;1.50;;;;;;;-1.11;87.86;102489.22;5021251;28;20215;-71
2022/02/12 05:05:51;;;;;;;4.40;1.20;;;;;;;-1.10;87.87;102492.69;5017125;28;20269;-70
2022/02/12 05:08:18;;;;;;;7.30;1.93;;;;;;;-1.11;87.38;102493.56;5015867;28;20214;-71
2022/02/12 05:10:45;;;;;;;6.33;1.60;;;;;;;-1.12;87.39;102489.19;5017462;28;20249;-71
2022/02/12 05:13:14;;;;;;;6.43;1.20;;;;;;;-1.14;87.35;102480.44;5016275;28;20207;-71
2022/02/12 05:15:41;;;;;;;4.80;1.90;;;;;;;-1.15;86.70;102486.53;5021557;28;20242;-71
2022/02/12 05:18:08;;;;;;;7.93;1.93;;;;;;;-1.14;86.67;102486.53;5019167;28;20290;-71
2022/02/12 05:20:34;;;;;;;8.50;1.30;;;;;;;-1.14;86.65;102473.47;5023615;28;20208;-71
2022/02/12 05:23:01;;;;;;;8.33;1.80;;;;;;;-1.11;86.75;102472.66;5028209;28;20305;-71
2022/02/12 05:25:27;;;;;;;6.97;1.83;;;;;;;-1.08;86.52;102475.31;5030050;28;20310;-71
2022/02/12 05:27:54;;;;;;;8.03;1.70;;;;;;;-1.06;86.43;102478.78;5025781;28;20651;-70
2022/02/12 05:30:22;;;;;;;5.53;1.17;;;;;;;-1.07;85.82;102459.59;5026819;28;20289;-70
2022/02/12 05:32:49;;;;;;;3.57;1.53;;;;;;;-1.06;85.76;102470.94;5028577;28;20257;-71
2022/02/12 05:35:16;;;;;;;7.57;2.27;;;;;;;-1.10;85.74;102464.81;5030497;28;20314;-72
2022/02/12 05:37:42;;;;;;;8.60;1.57;;;;;;;-1.13;85.32;102469.13;5026231;28;20290;-72
2022/02/12 05:40:11;;;;;;;4.80;1.70;;;;;;;-1.17;85.12;102477.78;5025374;28;20285;-71
2022/02/12 05:42:37;;;;;;;8.43;2.10;;;;;;;-1.21;84.82;102476.84;5030783;28;20281;-71
2022/02/12 05:45:04;;;;;;;7.23;1.60;;;;;;;-1.23;85.16;102477.69;5020911;28;20229;-70
2022/02/12 05:47:32;;;;;;;8.97;2.53;;;;;;;-1.28;84.67;102475.03;5024207;28;20234;-71
2022/02/12 05:49:59;;;;;;;5.53;1.90;;;;;;;-1.30;84.85;102473.25;5025989;28;20293;-71
2022/02/12 05:52:26;;;;;;;4.23;1.20;;;;;;;-1.33;84.92;102470.56;5028207;28;20643;-70
2022/02/12 05:54:52;;;;;;;5.40;1.90;;;;;;;-1.36;84.78;102471.41;5032232;28;20313;-70
2022/02/12 05:57:19;;;;;;;11.43;2.10;;;;;;;-1.37;84.38;102479.22;5026154;28;20218;-71
2022/02/12 05:59:46;;;;;;;5.17;1.50;;;;;;;-1.41;84.62;102468.72;5027071;28;20289;-70
2022/02/12 06:02:12;;;;;;;5.10;1.60;;;;;;;-1.42;84.78;102461.72;5021146;28;20257;-71
2022/02/12 06:04:40;;;;;;;5.53;1.90;;;;;;;-1.44;84.53;102479.16;5019527;28;20269;-71
2022/02/12 06:07:07;;;;;;;5.87;1.53;;;;;;;-1.44;84.83;102473.03;5026267;28;20202;-71
2022/02/12 06:09:33;;;;;;;5.57;2.00;;;;;;;-1.47;84.44;102460.81;5022771;28;20289;-71
2022/02/12 06:12:00;;;;;;;6.23;1.50;;;;;;;-1.48;84.27;102461.66;5013741;28;20325;-70
2022/02/12 06:14:27;;;;;;;7.73;1.40;;;;;;;-1.49;84.22;102444.22;5026958;28;20309;-71
2022/02/12 06:16:56;;;;;;;6.97;1.97;;;;;;;-1.50;84.64;102450.31;5028267;28;20313;-71
2022/02/12 06:19:22;;;;;;;7.63;2.13;;;;;;;-1.51;84.48;102443.31;5019838;28;20618;-70
2022/02/12 06:21:50;;;;;;;9.27;2.60;;;;;;;-1.51;84.63;102448.53;5022695;28;20303;-71
2022/02/12 06:24:17;;;;;;;6.13;2.07;;;;;;;-1.50;84.49;102445.09;5021754;28;20318;-71
2022/02/12 06:26:46;;;;;;;5.70;1.90;;;;;;;-1.49;84.22;102445.97;5015528;28;20720;-71
2022/02/12 06:29:13;;;;;;;4.77;1.80;;;;;;;-1.45;84.60;102440.81;5029806;28;20226;-71
2022/02/12 06:31:40;;;;;;;6.67;1.60;;;;;;;-1.42;84.22;102440.81;5017832;28;20230;-71
2022/02/12 06:34:06;;;;;;;6.10;1.67;;;;;;;-1.39;84.22;102437.38;5020519;28;20256;-71
2022/02/12 06:36:33;;;;;;;7.93;2.90;;;;;;;-1.38;84.13;102433.91;5013338;28;20223;-71
2022/02/12 06:39:01;;;;;;;4.00;2.40;;;;;;;-1.38;84.07;102431.28;5016526;28;20298;-69
2022/02/12 06:41:28;;;;;;;11.97;2.67;;;;;;;-1.38;84.34;102433.03;5020308;28;20821;-71
2022/02/12 06:43:55;;;;;;;6.00;2.40;;;;;;;-1.40;84.04;102422.56;5021926;28;20230;-70
2022/02/12 06:46:21;;;;;;;9.40;2.37;;;;;;;-1.40;84.04;102427.78;5019366;28;20226;-72
2022/02/12 06:48:48;;;;;;;4.27;2.23;;;;;;;-1.42;83.81;102429.50;5016561;28;20221;-71
2022/02/12 06:51:17;;;;;;;6.93;3.13;;;;;;;-1.45;84.31;102425.13;5023345;28;20217;-71
2022/02/12 06:53:43;;;;;;;11.53;2.30;;;;;;;-1.47;84.05;102419.00;5018345;28;20544;-70
2022/02/12 06:56:12;;;;;;;10.50;2.43;;;;;;;-1.48;83.69;102419.84;5020309;28;20357;-71
2022/02/12 06:58:39;;;;;;;9.27;2.40;;;;;;;-1.49;83.84;102423.31;5019008;28;20212;-71
2022/02/12 07:01:05;;;;;;;5.87;2.40;;;;;;;-1.50;83.75;102426.78;5019285;28;20286;-71
2022/02/12 07:03:32;;;;;;;8.53;2.87;;;;;;;-1.51;83.74;102421.53;5017097;28;20242;-72
2022/02/12 07:05:59;;;;;;;7.77;2.20;;;;;;;-1.51;83.83;102429.38;5018180;28;20237;-70
2022/02/12 07:08:26;;;;;;;8.23;2.60;;;;;;;-1.52;83.58;102430.22;5013575;28;20302;-70
2022/02/12 07:10:52;;;;;;;6.30;2.00;;;;;;;-1.53;83.47;102429.34;5016945;28;20221;-72
2022/02/12 07:13:20;;;;;;;6.30;2.97;;;;;;;-1.51;83.78;102435.47;5013741;28;20751;-71
2022/02/12 07:15:47;;;;;;;8.37;2.30;;;;;;;-1.50;83.71;102425.91;5021297;28;20230;-71
2022/02/12 07:18:14;;;;;;;9.10;1.87;;;;;;;-1.49;83.41;102436.38;5019200;28;20289;-71
2022/02/12 07:20:40;;;;;;;7.07;2.07;;;;;;;-1.45;83.85;102432.09;5015333;28;20242;-72
2022/02/12 07:23:07;;;;;;;4.70;1.93;;;;;;;-1.42;83.72;102434.72;5020162;28;20210;-72
2022/02/12 07:25:33;;;;;;;8.97;2.60;;;;;;;-1.41;83.35;102433.88;5018173;28;20250;-71
2022/02/12 07:28:00;;;;;;;5.10;2.60;;;;;;;-1.40;83.71;102444.34;5018142;28;20289;-71
2022/02/12 07:30:28;;;;;;;4.33;1.90;;;;;;;-1.37;83.64;102442.63;5020960;28;20211;-71
2022/02/12 07:32:55;;;;;;;5.13;1.90;;;;;;;-1.34;83.99;102437.44;5015275;28;20230;-70
2022/02/12 07:35:21;;;;;;;4.67;2.17;;;;;;;-1.32;83.75;102452.31;5021128;28;20305;-71
2022/02/12 07:37:49;;;;;;;8.40;2.40;;;;;;;-1.30;83.82;102440.13;5021117;28;20385;-71
2022/02/12 07:40:17;;;;;;;7.20;2.50;;;;;;;-1.27;83.83;102449.75;5017399;28;20341;-71
2022/02/12 07:42:46;;;;;;;7.40;2.27;;;;;;;-1.24;83.96;102445.44;5019185;28;20245;-71
2022/02/12 07:45:13;;;;;;;5.90;2.30;;;;;;;-1.16;83.91;102450.78;5018397;28;20329;-72
2022/02/12 07:47:42;;;;;;;7.43;2.07;;;;;;;-1.10;84.33;102443.03;5017770;28;20215;-71
2022/02/12 07:50:11;;;;;;;7.10;2.17;;;;;;;-1.02;84.36;102440.50;5019208;28;20226;-70
2022/02/12 07:52:39;;;;;;;5.70;1.73;;;;;;;-0.94;84.13;102439.75;5015030;28;20704;-71
2022/02/12 07:55:06;;;;;;;4.13;1.97;;;;;;;-0.84;84.23;102436.38;5017094;28;20711;-71
2022/02/12 07:57:33;;;;;;;7.30;2.67;;;;;;;-0.75;84.04;102439.09;5015637;28;20638;-70
2022/02/12 07:59:59;;;;;;;12.90;2.60;;;;;;;-0.68;83.68;102429.56;5014925;28;20519;-71
2022/02/12 08:02:27;;;;;;;9.17;4.70;;;;;;;-0.62;83.97;102428.75;5013423;28;20206;-71
2022/02/12 08:04:55;;;;;;;7.83;2.73;;;;;;;-0.58;83.84;102420.97;5041912;23;20313;-69
2022/02/12 08:07:31;;;;;;;8.57;2.80;;;;;;;-0.53;84.08;102421.88;5025823;28;20276;-69
2022/02/12 08:09:58;;;;;;;5.83;3.30;;;;;;;-0.48;83.78;102422.81;5023616;28;20522;-69
2022/02/12 08:12:25;;;;;;;13.33;2.93;;;;;;;-0.44;83.85;102408.03;5018800;28;20231;-70
2022/02/12 08:14:54;;;;;;;9.70;2.67;;;;;;;-0.37;83.71;102418.59;5014186;28;20314;-69
2022/02/12 08:17:22;;;;;;;6.43;2.53;;;;;;;-0.30;83.84;102418.63;5020686;28;20645;-69
2022/02/12 08:19:50;;;;;;;6.83;2.33;;;;;;;-0.23;83.83;102418.69;5017163;28;20744;-70
2022/02/12 08:22:19;;;;;;;10.70;2.50;;;;;;;-0.14;83.77;102416.16;5021785;28;20673;-69
2022/02/12 08:24:46;;;;;;;6.47;2.67;;;;;;;-0.06;83.83;102418.84;5023363;28;20232;-71
2022/02/12 08:27:14;;;;;;;10.67;2.90;;;;;;;0.03;83.86;102412.78;5019584;28;20220;-70
2022/02/12 08:29:42;;;;;;;8.53;2.50;;;;;;;0.12;84.05;102405.91;5018837;28;20301;-70
2022/02/12 08:32:10;;;;;;;8.93;2.37;;;;;;;0.23;84.07;102419.06;5017394;28;20266;-70
2022/02/12 08:34:37;;;;;;;7.87;2.10;;;;;;;0.32;84.02;102416.53;5015520;28;20317;-70
2022/02/12 08:37:04;;;;;;;11.83;3.33;;;;;;;0.43;83.77;102414.84;5018167;28;20211;-69
2022/02/12 08:39:32;;;;;;;12.37;2.27;;;;;;;0.52;83.84;102420.16;5016832;28;20602;-70
2022/02/12 08:41:59;;;;;;;9.63;2.60;;;;;;;0.64;83.68;102428.09;5017175;28;20241;-69
2022/02/12 08:44:26;;;;;;;3.27;1.90;;;;;;;0.77;83.71;102425.53;5021592;28;20251;-69
2022/02/12 08:46:52;;;;;;;7.37;2.30;;;;;;;0.87;83.40;102424.72;5018252;28;20214;-69
2022/02/12 08:49:19;;;;;;;10.63;2.23;;;;;;;1.00;83.02;102421.28;5018911;28;20214;-69
2022/02/12 08:51:47;;;;;;;8.17;2.53;;;;;;;1.13;83.10;102416.94;5016814;28;20290;-68
2022/02/12 08:54:15;;;;;;;13.30;3.10;;;;;;;1.25;82.82;102415.25;5022300;28;20211;-69
2022/02/12 08:56:44;;;;;;;12.13;2.87;;;;;;;1.37;82.47;102412.66;5020746;28;20216;-69
2022/02/12 08:59:12;;;;;;;5.47;1.83;;;;;;;1.48;82.00;102415.28;5017171;28;20254;-68
2022/02/12 09:01:40;;;;;;;6.47;2.00;;;;;;;1.57;81.47;102401.31;5022175;28;20739;-69
2022/02/12 09:04:09;;;;;;;7.63;1.90;;;;;;;1.66;80.53;102407.44;5023566;28;20202;-69
2022/02/12 09:06:35;;;;;;;6.90;1.90;;;;;;;1.75;79.90;102403.97;5022859;28;20256;-69
2022/02/12 09:09:03;;;;;;;6.40;1.90;;;;;;;1.87;79.90;102403.97;5020188;28;20766;-69
2022/02/12 09:11:31;;;;;;;6.43;2.40;;;;;;;2.01;79.17;102410.09;5022140;28;20207;-69
2022/02/12 09:13:59;;;;;;;6.03;2.33;;;;;;;2.14;78.82;102407.47;5021552;28;20301;-70
2022/02/12 09:16:27;;;;;;;3.63;1.90;;;;;;;2.23;78.05;102395.19;5025163;28;20610;-70
2022/02/12 09:18:53;;;;;;;6.93;1.97;;;;;;;2.35;77.59;102397.78;5020927;28;20212;-69
2022/02/12 09:21:21;;;;;;;7.10;2.00;;;;;;;2.47;77.06;102393.41;5021779;28;20301;-70
2022/02/12 09:23:48;;;;;;;7.07;1.90;;;;;;;2.58;76.24;102389.88;5024842;28;20272;-68
2022/02/12 09:26:15;;;;;;;4.77;1.70;;;;;;;2.68;75.62;102386.34;5024769;28;20285;-70
2022/02/12 09:28:42;;;;;;;5.87;1.60;;;;;;;2.77;74.76;102388.94;5019807;28;20245;-70
2022/02/12 09:31:10;;;;;;;6.60;3.00;;;;;;;2.87;73.99;102379.22;5022476;28;20206;-69
2022/02/12 09:33:37;;;;;;;7.93;1.50;;;;;;;3.00;73.71;102382.72;5024536;28;20309;-70
2022/02/12 09:36:05;;;;;;;4.43;1.77;;;;;;;3.10;73.42;102376.50;5018048;28;20314;-70
2022/02/12 09:38:33;;;;;;;9.47;1.73;;;;;;;3.19;72.88;102379.09;5025260;28;20265;-70
2022/02/12 09:40:59;;;;;;;5.33;1.70;;;;;;;3.28;72.25;102365.00;5021390;28;20273;-70
2022/02/12 09:43:30;;;;;;;7.50;1.57;;;;;;;3.39;70.50;102365.81;5023459;28;20695;-70
2022/02/12 09:46:25;;;;;;;7.60;2.27;;;;;;;3.46;70.05;102360.47;5023852;28;20937;-70
2022/02/12 09:48:52;;;;;;;12.17;2.93;;;;;;;3.57;69.52;102354.28;5023335;28;20281;-70
2022/02/12 09:51:19;;;;;;;5.43;1.80;;;;;;;3.64;69.19;102356.84;5024505;28;20235;-69
2022/02/12 09:53:46;;;;;;;5.53;1.57;;;;;;;3.71;68.52;102352.41;5023946;28;20244;-71
2022/02/12 09:56:12;;;;;;;4.80;1.93;;;;;;;3.76;68.49;102348.00;5020190;28;20265;-69
2022/02/12 09:58:39;;;;;;;5.83;1.80;;;;;;;3.79;68.14;102340.91;5019875;28;20338;-69
2022/02/12 10:01:07;;;;;;;8.80;2.83;;;;;;;3.85;67.38;102353.16;5018522;28;20214;-70
2022/02/12 10:03:35;;;;;;;8.13;2.47;;;;;;;3.89;66.98;102348.75;5023174;28;20287;-70
2022/02/12 10:06:02;;;;;;;7.70;2.17;;;;;;;3.95;67.39;102352.19;5019558;28;20265;-70
2022/02/12 10:08:28;;;;;;;7.17;2.13;;;;;;;3.98;67.17;102341.63;5023628;28;20205;-70
2022/02/12 10:10:55;;;;;;;7.13;2.37;;;;;;;4.03;66.84;102338.94;5023805;28;20215;-70
2022/02/12 10:13:23;;;;;;;9.63;2.20;;;;;;;4.06;66.93;102333.66;5023460;28;20225;-70
2022/02/12 10:15:54;;;;;;;5.30;1.80;;;;;;;4.10;67.14;102323.06;5025532;28;20221;-71
2022/02/12 10:18:21;;;;;;;6.53;1.70;;;;;;;4.15;66.79;102305.41;5018327;28;20199;-69
2022/02/12 10:20:49;;;;;;;5.97;2.20;;;;;;;4.16;66.47;102319.47;5016079;28;20210;-70
2022/02/12 10:23:17;;;;;;;11.13;2.27;;;;;;;4.18;66.36;102315.94;5020845;28;20222;-69
2022/02/12 10:25:46;;;;;;;8.73;2.17;;;;;;;4.23;66.07;102307.97;5015692;28;20215;-69
2022/02/12 10:28:14;;;;;;;7.50;1.80;;;;;;;4.26;65.79;102307.97;5019603;28;20215;-69
2022/02/12 10:30:43;;;;;;;5.87;1.50;;;;;;;4.30;65.40;102308.81;5021800;28;20621;-69
2022/02/12 10:33:10;;;;;;;6.13;1.50;;;;;;;4.28;65.02;102297.41;5018357;28;20226;-70
2022/02/12 10:35:39;;;;;;;10.70;3.30;;;;;;;4.29;65.25;102307.06;5014988;28;20234;-70
2022/02/12 10:38:10;;;;;;;10.27;2.93;;;;;;;4.30;65.49;102301.72;5021035;28;20284;-70
2022/02/12 10:40:39;;;;;;;7.90;3.50;;;;;;;4.33;64.72;102292.91;5018666;28;20221;-70
2022/02/12 10:43:05;;;;;;;3.73;1.57;;;;;;;4.33;64.45;102287.66;5018108;28;20751;-69
2022/02/12 10:45:33;;;;;;;4.13;1.47;;;;;;;4.31;64.67;102277.09;5024643;28;20741;-68
2022/02/12 10:48:00;;;;;;;4.03;1.70;;;;;;;4.35;64.79;102276.19;5018561;28;20549;-70
2022/02/12 10:50:28;;;;;;;5.20;1.80;;;;;;;4.38;64.51;102270.00;5017391;28;20295;-69
2022/02/12 10:52:58;;;;;;;5.63;1.90;;;;;;;4.40;64.46;102268.22;5018536;28;20230;-69
2022/02/12 10:55:32;;;;;;;4.33;1.87;;;;;;;4.40;64.72;102263.81;5027389;28;20737;-70
2022/02/12 10:58:01;;;;;;;5.67;1.97;;;;;;;4.40;64.06;102261.19;5025789;28;20264;-70
2022/02/12 11:00:29;;;;;;;5.20;1.80;;;;;;;4.42;63.87;102261.16;5019871;28;20218;-69
2022/02/12 11:02:57;;;;;;;7.93;2.20;;;;;;;4.49;63.52;102263.69;5025936;28;20324;-70
2022/02/12 11:05:24;;;;;;;9.50;3.43;;;;;;;4.51;63.76;102269.84;5020441;28;20241;-70
2022/02/12 11:07:52;;;;;;;9.10;2.63;;;;;;;4.54;63.95;102261.00;5021424;28;20198;-69
2022/02/12 11:10:20;;;;;;;7.73;3.60;;;;;;;4.57;63.79;102253.06;5028404;28;20598;-70
2022/02/12 11:12:49;;;;;;;8.90;2.43;;;;;;;4.65;63.86;102247.69;5024342;28;20222;-70
2022/02/12 11:15:16;;;;;;;10.13;2.13;;;;;;;4.67;62.99;102243.25;5023074;28;20608;-69
2022/02/12 11:17:44;;;;;;;6.80;3.27;;;;;;;4.63;62.74;102234.50;5013863;28;20217;-71
2022/02/12 11:20:13;;;;;;;5.10;1.50;;;;;;;4.67;63.34;102235.31;5025298;28;20212;-69
2022/02/12 11:22:41;;;;;;;7.17;2.13;;;;;;;4.73;62.72;102235.25;5023606;28;20215;-68
2022/02/12 11:25:33;;;;;;;7.67;2.27;;;;;;;4.76;62.62;102225.53;5022229;28;20288;-70
2022/02/12 11:28:09;;;;;;;5.20;1.63;;;;;;;4.82;62.47;102220.16;5015517;28;20219;-68
2022/02/12 11:30:38;;;;;;;8.17;2.30;;;;;;;4.82;61.84;102225.44;5017952;28;20209;-69
2022/02/12 11:33:10;;;;;;;4.33;1.77;;;;;;;4.85;62.09;102213.94;5014226;28;20226;-70
2022/02/12 11:35:37;;;;;;;6.40;2.80;;;;;;;4.86;62.04;102213.91;5016057;28;20309;-69